sensor_id;sensor_type;location;lat;lon;timestamp;pressure;altitude;pressure_sealevel;temperature;humidity
22255;BME280;11296;42.684;23.322;2022-08-21T00:01:56;94733.75;;;18.76;100.00
22255;BME280;11296;42.684;23.322;2022-08-21T00:04:22;94720.69;;;18.61;100.00
22255;BME280;11296;42.684;23.322;2022-08-21T00:06:49;94751.84;;;18.86;100.00
22255;BME280;11296;42.684;23.322;2022-08-21T00:09:15;94734.53;;;18.84;100.00
22255;BME280;11296;42.684;23.322;2022-08-21T00:11:40;94737.81;;;18.82;100.00
22255;BME280;11296;42.684;23.322;2022-08-21T00:14:08;94727.75;;;18.77;100.00
22255;BME280;11296;42.684;23.322;2022-08-21T00:16:34;94725.53;;;18.89;100.00
22255;BME280;11296;42.684;23.322;2022-08-21T00:19:00;94747.38;;;19.09;100.00
22255;BME280;11296;42.684;23.322;2022-08-21T00:21:26;94702.53;;;18.77;100.00
22255;BME280;11296;42.684;23.322;2022-08-21T00:23:52;94717.56;;;18.91;100.00
22255;BME280;11296;42.684;23.322;2022-08-21T00:26:18;94716.91;;;18.98;100.00
22255;BME280;11296;42.684;23.322;2022-08-21T00:28:43;94717.91;;;19.08;100.00
22255;BME280;11296;42.684;23.322;2022-08-21T00:31:11;94698.47;;;18.91;100.00
22255;BME280;11296;42.684;23.322;2022-08-21T00:33:37;94733.53;;;19.28;100.00
22255;BME280;11296;42.684;23.322;2022-08-21T00:36:03;94667.03;;;18.90;100.00
22255;BME280;11296;42.684;23.322;2022-08-21T00:38:29;94694.44;;;19.05;100.00
22255;BME280;11296;42.684;23.322;2022-08-21T00:40:59;94694.59;;;18.86;100.00
22255;BME280;11296;42.684;23.322;2022-08-21T00:43:29;94701.28;;;18.98;100.00
22255;BME280;11296;42.684;23.322;2022-08-21T00:45:55;94682.25;;;18.85;100.00
22255;BME280;11296;42.684;23.322;2022-08-21T00:48:22;94742.19;;;19.19;100.00
22255;BME280;11296;42.684;23.322;2022-08-21T00:51:13;94685.19;;;18.87;100.00
22255;BME280;11296;42.684;23.322;2022-08-21T00:53:39;94703.47;;;19.00;100.00
22255;BME280;11296;42.684;23.322;2022-08-21T00:56:07;94711.44;;;18.98;100.00
22255;BME280;11296;42.684;23.322;2022-08-21T00:58:35;94693.16;;;18.85;100.00
22255;BME280;11296;42.684;23.322;2022-08-21T01:01:04;94705.41;;;18.92;100.00
22255;BME280;11296;42.684;23.322;2022-08-21T01:03:32;94722.91;;;19.17;100.00
22255;BME280;11296;42.684;23.322;2022-08-21T01:05:59;94677.94;;;18.90;100.00
22255;BME280;11296;42.684;23.322;2022-08-21T01:08:25;94711.59;;;19.13;100.00
22255;BME280;11296;42.684;23.322;2022-08-21T01:10:52;94668.09;;;18.87;100.00
22255;BME280;11296;42.684;23.322;2022-08-21T01:13:24;94707.47;;;18.99;100.00
22255;BME280;11296;42.684;23.322;2022-08-21T01:15:53;94721.66;;;19.18;100.00
22255;BME280;11296;42.684;23.322;2022-08-21T01:18:20;94711.19;;;19.09;100.00
22255;BME280;11296;42.684;23.322;2022-08-21T01:21:00;94716.72;;;19.16;100.00
22255;BME280;11296;42.684;23.322;2022-08-21T01:23:26;94679.47;;;18.98;100.00
22255;BME280;11296;42.684;23.322;2022-08-21T01:25:51;94679.09;;;18.94;100.00
22255;BME280;11296;42.684;23.322;2022-08-21T01:28:17;94703.03;;;19.09;100.00
22255;BME280;11296;42.684;23.322;2022-08-21T01:30:44;94683.53;;;19.05;100.00
22255;BME280;11296;42.684;23.322;2022-08-21T01:33:10;94661.59;;;18.90;100.00
22255;BME280;11296;42.684;23.322;2022-08-21T01:35:36;94679.34;;;19.04;100.00
22255;BME280;11296;42.684;23.322;2022-08-21T01:38:02;94687.91;;;19.08;100.00
22255;BME280;11296;42.684;23.322;2022-08-21T01:40:28;94662.94;;;18.96;100.00
22255;BME280;11296;42.684;23.322;2022-08-21T01:42:54;94722.97;;;19.24;100.00
22255;BME280;11296;42.684;23.322;2022-08-21T01:45:20;94705.94;;;19.11;100.00
22255;BME280;11296;42.684;23.322;2022-08-21T01:47:46;94686.78;;;19.03;100.00
22255;BME280;11296;42.684;23.322;2022-08-21T01:50:15;94666.09;;;18.87;100.00
22255;BME280;11296;42.684;23.322;2022-08-21T01:52:41;94701.53;;;19.08;100.00
22255;BME280;11296;42.684;23.322;2022-08-21T01:55:13;94685.31;;;19.02;100.00
22255;BME280;11296;42.684;23.322;2022-08-21T01:57:40;94685.72;;;19.06;100.00
22255;BME280;11296;42.684;23.322;2022-08-21T02:00:09;94687.31;;;19.02;100.00
22255;BME280;11296;42.684;23.322;2022-08-21T02:02:40;94706.34;;;19.15;100.00
22255;BME280;11296;42.684;23.322;2022-08-21T02:05:08;94702.88;;;19.14;100.00
22255;BME280;11296;42.684;23.322;2022-08-21T02:07:44;94679.41;;;18.91;100.00
22255;BME280;11296;42.684;23.322;2022-08-21T02:10:13;94727.69;;;19.24;100.00
22255;BME280;11296;42.684;23.322;2022-08-21T02:12:38;94695.44;;;18.94;100.00
22255;BME280;11296;42.684;23.322;2022-08-21T02:15:07;94694.00;;;18.80;100.00
22255;BME280;11296;42.684;23.322;2022-08-21T02:17:44;94689.91;;;18.87;100.00
22255;BME280;11296;42.684;23.322;2022-08-21T02:20:19;94719.19;;;19.07;100.00
22255;BME280;11296;42.684;23.322;2022-08-21T02:22:46;94725.31;;;19.20;100.00
22255;BME280;11296;42.684;23.322;2022-08-21T02:25:12;94704.69;;;19.12;100.00
22255;BME280;11296;42.684;23.322;2022-08-21T02:27:39;94687.50;;;19.04;100.00
22255;BME280;11296;42.684;23.322;2022-08-21T02:30:06;94740.88;;;19.33;100.00
22255;BME280;11296;42.684;23.322;2022-08-21T02:32:32;94719.97;;;19.15;100.00
22255;BME280;11296;42.684;23.322;2022-08-21T02:34:58;94725.03;;;19.11;100.00
22255;BME280;11296;42.684;23.322;2022-08-21T02:37:24;94740.72;;;19.18;100.00
22255;BME280;11296;42.684;23.322;2022-08-21T02:39:49;94737.06;;;19.15;100.00
22255;BME280;11296;42.684;23.322;2022-08-21T02:42:15;94730.28;;;19.09;100.00
22255;BME280;11296;42.684;23.322;2022-08-21T02:44:41;94733.09;;;19.16;100.00
22255;BME280;11296;42.684;23.322;2022-08-21T02:47:07;94742.28;;;19.27;100.00
22255;BME280;11296;42.684;23.322;2022-08-21T02:49:32;94739.16;;;19.22;100.00
22255;BME280;11296;42.684;23.322;2022-08-21T02:51:58;94738.53;;;19.16;100.00
22255;BME280;11296;42.684;23.322;2022-08-21T02:54:24;94733.28;;;19.18;100.00
22255;BME280;11296;42.684;23.322;2022-08-21T02:56:50;94730.22;;;19.22;100.00
22255;BME280;11296;42.684;23.322;2022-08-21T02:59:15;94724.97;;;19.24;100.00
22255;BME280;11296;42.684;23.322;2022-08-21T03:01:41;94736.28;;;19.28;100.00
22255;BME280;11296;42.684;23.322;2022-08-21T03:04:07;94729.63;;;19.16;100.00
22255;BME280;11296;42.684;23.322;2022-08-21T03:06:33;94738.22;;;19.20;100.00
22255;BME280;11296;42.684;23.322;2022-08-21T03:08:59;94742.38;;;19.21;100.00
22255;BME280;11296;42.684;23.322;2022-08-21T03:11:24;94752.44;;;19.26;100.00
22255;BME280;11296;42.684;23.322;2022-08-21T03:13:51;94735.81;;;19.16;100.00
22255;BME280;11296;42.684;23.322;2022-08-21T03:16:17;94735.28;;;19.18;100.00
22255;BME280;11296;42.684;23.322;2022-08-21T03:18:45;94703.56;;;19.07;100.00
22255;BME280;11296;42.684;23.322;2022-08-21T03:21:10;94689.97;;;18.94;100.00
22255;BME280;11296;42.684;23.322;2022-08-21T03:23:37;94715.16;;;19.08;100.00
22255;BME280;11296;42.684;23.322;2022-08-21T03:26:05;94726.06;;;19.08;100.00
22255;BME280;11296;42.684;23.322;2022-08-21T03:28:31;94720.63;;;18.87;100.00
22255;BME280;11296;42.684;23.322;2022-08-21T03:30:59;94740.09;;;18.91;100.00
22255;BME280;11296;42.684;23.322;2022-08-21T03:33:24;94702.09;;;18.73;100.00
22255;BME280;11296;42.684;23.322;2022-08-21T03:36:04;94754.72;;;19.01;100.00
22255;BME280;11296;42.684;23.322;2022-08-21T03:38:34;94711.09;;;18.81;100.00
22255;BME280;11296;42.684;23.322;2022-08-21T03:41:01;94707.72;;;18.88;100.00
22255;BME280;11296;42.684;23.322;2022-08-21T03:43:27;94690.34;;;18.78;100.00
22255;BME280;11296;42.684;23.322;2022-08-21T03:45:53;94672.59;;;18.64;100.00
22255;BME280;11296;42.684;23.322;2022-08-21T03:48:20;94716.75;;;18.83;100.00
22255;BME280;11296;42.684;23.322;2022-08-21T03:50:45;94709.34;;;18.70;100.00
22255;BME280;11296;42.684;23.322;2022-08-21T03:53:14;94699.94;;;18.58;100.00
22255;BME280;11296;42.684;23.322;2022-08-21T03:55:40;94734.97;;;18.88;100.00
22255;BME280;11296;42.684;23.322;2022-08-21T03:58:07;94742.97;;;18.73;100.00
22255;BME280;11296;42.684;23.322;2022-08-21T04:00:33;94722.88;;;18.63;100.00
22255;BME280;11296;42.684;23.322;2022-08-21T04:02:59;94726.53;;;18.65;100.00
22255;BME280;11296;42.684;23.322;2022-08-21T04:05:25;94733.34;;;18.72;100.00
22255;BME280;11296;42.684;23.322;2022-08-21T04:08:02;94755.31;;;18.87;100.00
22255;BME280;11296;42.684;23.322;2022-08-21T04:10:30;94729.25;;;18.65;100.00
22255;BME280;11296;42.684;23.322;2022-08-21T04:12:56;94765.88;;;18.90;100.00
22255;BME280;11296;42.684;23.322;2022-08-21T04:15:23;94719.03;;;18.45;100.00
22255;BME280;11296;42.684;23.322;2022-08-21T04:17:49;94710.28;;;18.60;100.00
22255;BME280;11296;42.684;23.322;2022-08-21T04:20:19;94708.00;;;18.50;100.00
22255;BME280;11296;42.684;23.322;2022-08-21T04:22:47;94742.34;;;18.67;100.00
22255;BME280;11296;42.684;23.322;2022-08-21T04:25:15;94703.69;;;18.42;100.00
22255;BME280;11296;42.684;23.322;2022-08-21T04:27:41;94709.28;;;18.49;100.00
22255;BME280;11296;42.684;23.322;2022-08-21T04:30:08;94740.22;;;18.73;100.00
22255;BME280;11296;42.684;23.322;2022-08-21T04:32:36;94713.91;;;18.55;100.00
22255;BME280;11296;42.684;23.322;2022-08-21T04:35:07;94704.13;;;18.59;100.00
22255;BME280;11296;42.684;23.322;2022-08-21T04:37:35;94699.44;;;18.46;100.00
22255;BME280;11296;42.684;23.322;2022-08-21T04:40:01;94714.59;;;18.55;100.00
22255;BME280;11296;42.684;23.322;2022-08-21T04:42:28;94741.69;;;18.87;100.00
22255;BME280;11296;42.684;23.322;2022-08-21T04:44:55;94710.84;;;18.58;100.00
22255;BME280;11296;42.684;23.322;2022-08-21T04:47:22;94704.97;;;18.54;100.00
22255;BME280;11296;42.684;23.322;2022-08-21T04:49:49;94719.91;;;18.74;100.00
22255;BME280;11296;42.684;23.322;2022-08-21T04:52:22;94711.84;;;18.81;100.00
22255;BME280;11296;42.684;23.322;2022-08-21T04:54:50;94730.94;;;19.02;100.00
22255;BME280;11296;42.684;23.322;2022-08-21T04:57:20;94707.50;;;18.86;100.00
22255;BME280;11296;42.684;23.322;2022-08-21T04:59:48;94695.59;;;18.76;100.00
22255;BME280;11296;42.684;23.322;2022-08-21T05:02:16;94720.44;;;19.06;100.00
22255;BME280;11296;42.684;23.322;2022-08-21T05:04:47;94710.59;;;19.03;100.00
22255;BME280;11296;42.684;23.322;2022-08-21T05:07:22;94746.75;;;19.37;100.00
22255;BME280;11296;42.684;23.322;2022-08-21T05:09:51;94729.69;;;19.23;100.00
22255;BME280;11296;42.684;23.322;2022-08-21T05:12:17;94700.69;;;19.13;100.00
22255;BME280;11296;42.684;23.322;2022-08-21T05:14:44;94737.44;;;19.53;100.00
22255;BME280;11296;42.684;23.322;2022-08-21T05:17:09;94683.53;;;19.25;100.00
22255;BME280;11296;42.684;23.322;2022-08-21T05:19:35;94694.00;;;19.35;100.00
22255;BME280;11296;42.684;23.322;2022-08-21T05:22:01;94695.47;;;19.36;100.00
22255;BME280;11296;42.684;23.322;2022-08-21T05:24:28;94727.44;;;19.76;100.00
22255;BME280;11296;42.684;23.322;2022-08-21T05:26:55;94691.34;;;19.42;100.00
22255;BME280;11296;42.684;23.322;2022-08-21T05:29:24;94721.66;;;19.80;100.00
22255;BME280;11296;42.684;23.322;2022-08-21T05:40:26;94687.22;;;19.77;100.00
22255;BME280;11296;42.684;23.322;2022-08-21T05:42:53;94685.72;;;19.96;100.00
22255;BME280;11296;42.684;23.322;2022-08-21T05:45:25;94682.97;;;20.25;100.00
22255;BME280;11296;42.684;23.322;2022-08-21T05:47:52;94671.34;;;20.32;100.00
22255;BME280;11296;42.684;23.322;2022-08-21T05:50:18;94700.97;;;20.56;100.00
22255;BME280;11296;42.684;23.322;2022-08-21T05:52:44;94668.50;;;20.45;100.00
22255;BME280;11296;42.684;23.322;2022-08-21T05:55:13;94674.88;;;20.40;100.00
22255;BME280;11296;42.684;23.322;2022-08-21T05:57:41;94691.88;;;20.61;100.00
22255;BME280;11296;42.684;23.322;2022-08-21T06:10:33;94731.34;;;20.17;100.00
22255;BME280;11296;42.684;23.322;2022-08-21T06:12:58;94684.06;;;19.65;100.00
22255;BME280;11296;42.684;23.322;2022-08-21T06:21:22;94730.25;;;20.91;100.00
22255;BME280;11296;42.684;23.322;2022-08-21T06:34:04;94671.53;;;22.28;100.00
22255;BME280;11296;42.684;23.322;2022-08-21T06:36:30;94675.91;;;22.31;100.00
22255;BME280;11296;42.684;23.322;2022-08-21T06:41:44;94707.22;;;22.60;100.00
22255;BME280;11296;42.684;23.322;2022-08-21T06:44:10;94687.44;;;22.14;100.00
22255;BME280;11296;42.684;23.322;2022-08-21T06:46:36;94692.38;;;22.16;100.00
22255;BME280;11296;42.684;23.322;2022-08-21T06:49:02;94670.13;;;21.97;100.00
22255;BME280;11296;42.684;23.322;2022-08-21T06:51:28;94690.97;;;21.85;100.00
22255;BME280;11296;42.684;23.322;2022-08-21T06:53:55;94693.31;;;21.66;100.00
22255;BME280;11296;42.684;23.322;2022-08-21T06:56:24;94688.22;;;21.55;100.00
22255;BME280;11296;42.684;23.322;2022-08-21T06:58:52;94701.53;;;21.51;100.00
22255;BME280;11296;42.684;23.322;2022-08-21T07:01:21;94691.53;;;21.46;100.00
22255;BME280;11296;42.684;23.322;2022-08-21T07:03:49;94690.78;;;21.45;100.00
22255;BME280;11296;42.684;23.322;2022-08-21T07:06:15;94678.91;;;21.35;100.00
22255;BME280;11296;42.684;23.322;2022-08-21T07:08:40;94726.75;;;21.57;100.00
22255;BME280;11296;42.684;23.322;2022-08-21T07:11:23;94690.59;;;21.51;100.00
22255;BME280;11296;42.684;23.322;2022-08-21T07:13:49;94721.47;;;21.89;100.00
22255;BME280;11296;42.684;23.322;2022-08-21T07:16:16;94701.16;;;21.77;100.00
22255;BME280;11296;42.684;23.322;2022-08-21T07:18:42;94698.81;;;21.96;100.00
22255;BME280;11296;42.684;23.322;2022-08-21T07:21:08;94716.84;;;22.29;100.00
22255;BME280;11296;42.684;23.322;2022-08-21T07:23:40;94714.66;;;22.20;100.00
22255;BME280;11296;42.684;23.322;2022-08-21T07:26:07;94722.31;;;22.14;100.00
22255;BME280;11296;42.684;23.322;2022-08-21T07:28:33;94717.78;;;22.09;100.00
22255;BME280;11296;42.684;23.322;2022-08-21T07:31:00;94703.34;;;22.08;100.00
22255;BME280;11296;42.684;23.322;2022-08-21T07:33:27;94700.22;;;22.27;100.00
22255;BME280;11296;42.684;23.322;2022-08-21T07:35:54;94693.63;;;22.30;100.00
22255;BME280;11296;42.684;23.322;2022-08-21T07:38:21;94704.34;;;22.43;100.00
22255;BME280;11296;42.684;23.322;2022-08-21T07:40:48;94677.69;;;22.44;100.00
22255;BME280;11296;42.684;23.322;2022-08-21T07:43:14;94682.13;;;22.24;100.00
22255;BME280;11296;42.684;23.322;2022-08-21T07:45:43;94681.00;;;22.35;100.00
22255;BME280;11296;42.684;23.322;2022-08-21T07:48:09;94683.66;;;22.57;100.00
22255;BME280;11296;42.684;23.322;2022-08-21T07:50:35;94684.13;;;22.78;100.00
22255;BME280;11296;42.684;23.322;2022-08-21T07:53:01;94681.94;;;23.09;100.00
22255;BME280;11296;42.684;23.322;2022-08-21T07:55:27;94673.28;;;23.20;100.00
22255;BME280;11296;42.684;23.322;2022-08-21T07:57:53;94684.41;;;23.22;100.00
22255;BME280;11296;42.684;23.322;2022-08-21T08:00:22;94674.69;;;23.04;100.00
22255;BME280;11296;42.684;23.322;2022-08-21T08:02:50;94667.84;;;23.13;100.00
22255;BME280;11296;42.684;23.322;2022-08-21T08:05:18;94681.81;;;23.56;100.00
22255;BME280;11296;42.684;23.322;2022-08-21T08:07:44;94682.19;;;23.53;100.00
22255;BME280;11296;42.684;23.322;2022-08-21T08:10:11;94676.41;;;23.66;100.00
22255;BME280;11296;42.684;23.322;2022-08-21T08:12:39;94684.44;;;23.47;100.00
22255;BME280;11296;42.684;23.322;2022-08-21T08:15:08;94687.94;;;23.47;100.00
22255;BME280;11296;42.684;23.322;2022-08-21T08:17:34;94684.72;;;23.34;100.00
22255;BME280;11296;42.684;23.322;2022-08-21T08:19:59;94673.59;;;23.24;100.00
22255;BME280;11296;42.684;23.322;2022-08-21T08:22:28;94674.78;;;23.14;100.00
22255;BME280;11296;42.684;23.322;2022-08-21T08:24:54;94642.28;;;23.03;100.00
22255;BME280;11296;42.684;23.322;2022-08-21T08:27:21;94662.81;;;23.02;100.00
22255;BME280;11296;42.684;23.322;2022-08-21T08:29:47;94676.91;;;23.23;100.00
22255;BME280;11296;42.684;23.322;2022-08-21T08:32:14;94647.81;;;23.52;100.00
22255;BME280;11296;42.684;23.322;2022-08-21T08:34:39;94669.13;;;23.86;100.00
22255;BME280;11296;42.684;23.322;2022-08-21T08:37:07;94661.53;;;23.94;100.00
22255;BME280;11296;42.684;23.322;2022-08-21T08:39:32;94685.63;;;24.03;100.00
22255;BME280;11296;42.684;23.322;2022-08-21T08:42:11;94699.97;;;24.18;100.00
22255;BME280;11296;42.684;23.322;2022-08-21T08:44:42;94668.53;;;24.12;100.00
22255;BME280;11296;42.684;23.322;2022-08-21T08:47:10;94680.47;;;24.24;100.00
22255;BME280;11296;42.684;23.322;2022-08-21T08:50:07;94688.31;;;24.45;100.00
22255;BME280;11296;42.684;23.322;2022-08-21T08:55:40;94655.06;;;24.94;100.00
22255;BME280;11296;42.684;23.322;2022-08-21T08:58:09;94658.59;;;25.04;100.00
22255;BME280;11296;42.684;23.322;2022-08-21T09:00:38;94683.53;;;25.06;100.00
22255;BME280;11296;42.684;23.322;2022-08-21T09:03:04;94636.66;;;24.87;100.00
22255;BME280;11296;42.684;23.322;2022-08-21T09:10:48;94661.34;;;25.40;100.00
22255;BME280;11296;42.684;23.322;2022-08-21T09:27:17;94630.16;;;25.74;100.00
22255;BME280;11296;42.684;23.322;2022-08-21T09:29:46;94634.53;;;25.87;100.00
22255;BME280;11296;42.684;23.322;2022-08-21T09:32:30;94586.38;;;26.07;100.00
22255;BME280;11296;42.684;23.322;2022-08-21T09:35:14;94625.72;;;26.45;100.00
22255;BME280;11296;42.684;23.322;2022-08-21T09:37:55;94625.84;;;26.57;100.00
22255;BME280;11296;42.684;23.322;2022-08-21T09:43:03;94601.91;;;26.50;100.00
22255;BME280;11296;42.684;23.322;2022-08-21T09:45:30;94615.09;;;26.80;100.00
22255;BME280;11296;42.684;23.322;2022-08-21T09:47:56;94620.53;;;26.99;100.00
22255;BME280;11296;42.684;23.322;2022-08-21T09:50:32;94624.19;;;26.92;100.00
22255;BME280;11296;42.684;23.322;2022-08-21T09:53:00;94595.78;;;26.80;100.00
22255;BME280;11296;42.684;23.322;2022-08-21T09:55:55;94607.16;;;26.36;100.00
22255;BME280;11296;42.684;23.322;2022-08-21T09:58:44;94624.72;;;26.31;100.00
22255;BME280;11296;42.684;23.322;2022-08-21T10:01:20;94596.56;;;25.95;100.00
22255;BME280;11296;42.684;23.322;2022-08-21T10:03:46;94578.13;;;25.68;100.00
22255;BME280;11296;42.684;23.322;2022-08-21T10:06:27;94595.94;;;25.67;100.00
22255;BME280;11296;42.684;23.322;2022-08-21T10:09:12;94610.75;;;25.82;100.00
22255;BME280;11296;42.684;23.322;2022-08-21T10:11:39;94601.78;;;25.91;100.00
22255;BME280;11296;42.684;23.322;2022-08-21T10:28:16;94604.22;;;26.63;100.00
22255;BME280;11296;42.684;23.322;2022-08-21T10:39:34;94598.53;;;27.21;100.00
22255;BME280;11296;42.684;23.322;2022-08-21T10:42:17;94594.94;;;27.08;100.00
22255;BME280;11296;42.684;23.322;2022-08-21T10:45:14;94582.50;;;27.29;100.00
22255;BME280;11296;42.684;23.322;2022-08-21T10:47:55;94569.41;;;26.98;100.00
22255;BME280;11296;42.684;23.322;2022-08-21T10:50:37;94574.69;;;27.25;100.00
22255;BME280;11296;42.684;23.322;2022-08-21T10:55:44;94577.75;;;27.50;100.00
22255;BME280;11296;42.684;23.322;2022-08-21T10:58:31;94561.09;;;27.39;100.00
22255;BME280;11296;42.684;23.322;2022-08-21T11:01:05;94553.09;;;27.64;100.00
22255;BME280;11296;42.684;23.322;2022-08-21T11:03:41;94554.53;;;27.65;100.00
22255;BME280;11296;42.684;23.322;2022-08-21T11:06:22;94547.56;;;27.64;100.00
22255;BME280;11296;42.684;23.322;2022-08-21T11:08:52;94525.84;;;27.49;100.00
22255;BME280;11296;42.684;23.322;2022-08-21T11:11:33;94552.28;;;27.94;100.00
22255;BME280;11296;42.684;23.322;2022-08-21T11:14:41;94541.34;;;27.96;100.00
22255;BME280;11296;42.684;23.322;2022-08-21T11:17:14;94539.91;;;27.95;100.00
22255;BME280;11296;42.684;23.322;2022-08-21T11:19:54;94547.38;;;28.25;100.00
22255;BME280;11296;42.684;23.322;2022-08-21T11:22:52;94520.19;;;27.89;100.00
22255;BME280;11296;42.684;23.322;2022-08-21T11:25:26;94540.56;;;28.05;100.00
22255;BME280;11296;42.684;23.322;2022-08-21T11:27:58;94535.81;;;28.17;100.00
22255;BME280;11296;42.684;23.322;2022-08-21T11:30:33;94518.69;;;27.98;100.00
22255;BME280;11296;42.684;23.322;2022-08-21T11:33:23;94542.81;;;27.97;100.00
22255;BME280;11296;42.684;23.322;2022-08-21T11:36:25;94527.69;;;27.98;100.00
22255;BME280;11296;42.684;23.322;2022-08-21T11:41:42;94521.09;;;28.03;100.00
22255;BME280;11296;42.684;23.322;2022-08-21T11:47:46;94526.50;;;28.01;100.00
22255;BME280;11296;42.684;23.322;2022-08-21T11:50:21;94518.88;;;27.69;100.00
22255;BME280;11296;42.684;23.322;2022-08-21T11:53:09;94528.81;;;27.62;100.00
22255;BME280;11296;42.684;23.322;2022-08-21T11:55:45;94514.88;;;27.30;100.00
22255;BME280;11296;42.684;23.322;2022-08-21T11:58:32;94525.84;;;27.49;100.00
22255;BME280;11296;42.684;23.322;2022-08-21T12:01:07;94511.00;;;27.23;100.00
22255;BME280;11296;42.684;23.322;2022-08-21T12:03:36;94525.53;;;27.24;100.00
22255;BME280;11296;42.684;23.322;2022-08-21T12:06:11;94531.53;;;27.20;100.00
22255;BME280;11296;42.684;23.322;2022-08-21T12:08:43;94518.00;;;27.24;100.00
22255;BME280;11296;42.684;23.322;2022-08-21T12:13:54;94510.06;;;27.40;100.00
22255;BME280;11296;42.684;23.322;2022-08-21T12:16:37;94494.97;;;27.31;100.00
22255;BME280;11296;42.684;23.322;2022-08-21T12:19:10;94513.59;;;27.31;100.00
22255;BME280;11296;42.684;23.322;2022-08-21T12:22:09;94516.22;;;27.29;100.00
22255;BME280;11296;42.684;23.322;2022-08-21T12:24:49;94528.03;;;27.19;100.00
22255;BME280;11296;42.684;23.322;2022-08-21T12:27:26;94505.94;;;27.19;100.00
22255;BME280;11296;42.684;23.322;2022-08-21T12:30:05;94527.50;;;27.11;100.00
22255;BME280;11296;42.684;23.322;2022-08-21T12:32:44;94528.66;;;26.87;100.00
22255;BME280;11296;42.684;23.322;2022-08-21T12:35:16;94528.00;;;26.98;100.00
22255;BME280;11296;42.684;23.322;2022-08-21T12:37:56;94518.38;;;26.78;100.00
22255;BME280;11296;42.684;23.322;2022-08-21T12:40:33;94527.09;;;26.65;100.00
22255;BME280;11296;42.684;23.322;2022-08-21T12:43:03;94510.41;;;26.63;100.00
22255;BME280;11296;42.684;23.322;2022-08-21T12:48:04;94495.03;;;26.51;100.00
22255;BME280;11296;42.684;23.322;2022-08-21T12:50:44;94510.16;;;26.50;100.00
22255;BME280;11296;42.684;23.322;2022-08-21T12:53:44;94474.53;;;26.13;100.00
22255;BME280;11296;42.684;23.322;2022-08-21T12:56:14;94521.53;;;26.34;100.00
22255;BME280;11296;42.684;23.322;2022-08-21T12:58:45;94505.47;;;25.93;100.00
22255;BME280;11296;42.684;23.322;2022-08-21T13:01:32;94520.53;;;25.92;100.00
22255;BME280;11296;42.684;23.322;2022-08-21T13:04:07;94519.25;;;25.93;100.00
22255;BME280;11296;42.684;23.322;2022-08-21T13:06:49;94491.25;;;25.67;100.00
22255;BME280;11296;42.684;23.322;2022-08-21T13:09:19;94503.72;;;25.88;100.00
22255;BME280;11296;42.684;23.322;2022-08-21T13:11:47;94504.59;;;25.61;100.00
22255;BME280;11296;42.684;23.322;2022-08-21T13:14:33;94501.69;;;25.59;100.00
22255;BME280;11296;42.684;23.322;2022-08-21T13:17:03;94501.25;;;25.63;100.00
22255;BME280;11296;42.684;23.322;2022-08-21T13:19:31;94510.97;;;25.73;100.00
22255;BME280;11296;42.684;23.322;2022-08-21T13:21:57;94500.69;;;25.74;100.00
22255;BME280;11296;42.684;23.322;2022-08-21T13:24:27;94497.47;;;25.87;100.00
22255;BME280;11296;42.684;23.322;2022-08-21T13:26:54;94482.09;;;26.03;100.00
22255;BME280;11296;42.684;23.322;2022-08-21T13:29:23;94475.81;;;26.31;100.00
22255;BME280;11296;42.684;23.322;2022-08-21T13:31:53;94466.97;;;26.73;100.00
22255;BME280;11296;42.684;23.322;2022-08-21T13:34:24;94443.75;;;27.18;100.00
22255;BME280;11296;42.684;23.322;2022-08-21T13:36:56;94453.19;;;27.79;100.00
22255;BME280;11296;42.684;23.322;2022-08-21T13:39:23;94463.94;;;27.96;100.00
22255;BME280;11296;42.684;23.322;2022-08-21T13:41:52;94468.59;;;27.82;100.00
22255;BME280;11296;42.684;23.322;2022-08-21T13:44:46;94476.56;;;27.66;100.00
22255;BME280;11296;42.684;23.322;2022-08-21T13:47:12;94469.09;;;27.36;100.00
22255;BME280;11296;42.684;23.322;2022-08-21T13:49:42;94477.41;;;27.27;100.00
22255;BME280;11296;42.684;23.322;2022-08-21T13:52:21;94464.56;;;27.10;100.00
22255;BME280;11296;42.684;23.322;2022-08-21T13:54:59;94472.69;;;27.39;100.00
22255;BME280;11296;42.684;23.322;2022-08-21T13:57:31;94466.88;;;27.35;100.00
22255;BME280;11296;42.684;23.322;2022-08-21T14:00:18;94466.56;;;27.61;100.00
22255;BME280;11296;42.684;23.322;2022-08-21T14:02:46;94475.16;;;27.77;100.00
22255;BME280;11296;42.684;23.322;2022-08-21T14:05:21;94458.34;;;27.52;100.00
22255;BME280;11296;42.684;23.322;2022-08-21T14:07:50;94462.09;;;27.35;100.00
22255;BME280;11296;42.684;23.322;2022-08-21T14:10:22;94463.34;;;27.23;100.00
22255;BME280;11296;42.684;23.322;2022-08-21T14:12:54;94441.97;;;26.71;100.00
22255;BME280;11296;42.684;23.322;2022-08-21T14:15:25;94437.56;;;26.47;100.00
22255;BME280;11296;42.684;23.322;2022-08-21T14:17:54;94458.03;;;26.54;100.00
22255;BME280;11296;42.684;23.322;2022-08-21T14:20:31;94464.84;;;26.53;100.00
22255;BME280;11296;42.684;23.322;2022-08-21T14:22:59;94473.91;;;26.34;100.00
22255;BME280;11296;42.684;23.322;2022-08-21T14:31:17;94456.84;;;26.16;100.00
22255;BME280;11296;42.684;23.322;2022-08-21T14:33:43;94465.84;;;26.17;100.00
22255;BME280;11296;42.684;23.322;2022-08-21T14:36:09;94468.88;;;26.21;100.00
22255;BME280;11296;42.684;23.322;2022-08-21T14:38:38;94475.84;;;26.03;100.00
22255;BME280;11296;42.684;23.322;2022-08-21T14:41:13;94481.22;;;25.91;100.00
22255;BME280;11296;42.684;23.322;2022-08-21T14:43:41;94483.13;;;25.60;100.00